sensor_id;sensor_type;location;lat;lon;timestamp;pressure;altitude;pressure_sealevel;temperature;humidity
4981;BME280;2507;50.392;7.482;2023-04-24T00:01:38;99437.25;;;14.67;67.28
4981;BME280;2507;50.392;7.482;2023-04-24T00:04:04;99435.59;;;14.66;67.21
4981;BME280;2507;50.392;7.482;2023-04-24T00:06:30;99441.88;;;14.73;66.49
4981;BME280;2507;50.392;7.482;2023-04-24T00:09:02;99442.34;;;14.77;66.72
4981;BME280;2507;50.392;7.482;2023-04-24T00:11:28;99442.03;;;14.88;66.58
4981;BME280;2507;50.392;7.482;2023-04-24T00:13:53;99434.63;;;14.99;66.70
4981;BME280;2507;50.392;7.482;2023-04-24T00:16:18;99433.09;;;14.73;67.14
4981;BME280;2507;50.392;7.482;2023-04-24T00:18:44;99443.22;;;14.85;67.18
4981;BME280;2507;50.392;7.482;2023-04-24T00:21:10;99439.06;;;14.83;67.79
4981;BME280;2507;50.392;7.482;2023-04-24T00:23:35;99436.09;;;14.78;68.04
4981;BME280;2507;50.392;7.482;2023-04-24T00:26:00;99428.50;;;14.67;67.84
4981;BME280;2507;50.392;7.482;2023-04-24T00:28:26;99426.34;;;14.70;66.76
4981;BME280;2507;50.392;7.482;2023-04-24T00:30:51;99431.97;;;14.75;66.17
4981;BME280;2507;50.392;7.482;2023-04-24T00:33:16;99436.28;;;14.76;65.36
4981;BME280;2507;50.392;7.482;2023-04-24T00:35:42;99444.16;;;14.60;65.73
4981;BME280;2507;50.392;7.482;2023-04-24T00:38:07;99445.19;;;14.25;70.53
4981;BME280;2507;50.392;7.482;2023-04-24T00:40:32;99431.47;;;14.14;71.50
4981;BME280;2507;50.392;7.482;2023-04-24T00:42:58;99421.25;;;14.19;72.02
4981;BME280;2507;50.392;7.482;2023-04-24T00:45:23;99416.16;;;14.25;72.08
4981;BME280;2507;50.392;7.482;2023-04-24T00:47:48;99418.41;;;14.38;70.98
4981;BME280;2507;50.392;7.482;2023-04-24T00:50:16;99422.66;;;14.39;71.03
4981;BME280;2507;50.392;7.482;2023-04-24T00:52:41;99411.28;;;14.30;70.64
4981;BME280;2507;50.392;7.482;2023-04-24T00:55:06;99416.66;;;14.21;70.58
4981;BME280;2507;50.392;7.482;2023-04-24T00:57:32;99410.03;;;14.09;70.34
4981;BME280;2507;50.392;7.482;2023-04-24T00:59:58;99414.97;;;14.12;69.49
4981;BME280;2507;50.392;7.482;2023-04-24T01:02:23;99408.03;;;14.11;69.71
4981;BME280;2507;50.392;7.482;2023-04-24T01:04:50;99413.63;;;14.00;70.18
4981;BME280;2507;50.392;7.482;2023-04-24T01:07:19;99416.59;;;14.05;69.92
4981;BME280;2507;50.392;7.482;2023-04-24T01:09:46;99415.28;;;14.01;69.14
4981;BME280;2507;50.392;7.482;2023-04-24T01:12:14;99415.44;;;13.99;69.16
4981;BME280;2507;50.392;7.482;2023-04-24T01:14:40;99410.94;;;13.92;69.23
4981;BME280;2507;50.392;7.482;2023-04-24T01:17:05;99408.31;;;13.92;69.56
4981;BME280;2507;50.392;7.482;2023-04-24T01:19:31;99406.88;;;14.05;68.43
4981;BME280;2507;50.392;7.482;2023-04-24T01:21:58;99412.63;;;14.01;68.89
4981;BME280;2507;50.392;7.482;2023-04-24T01:24:24;99415.91;;;13.95;69.25
4981;BME280;2507;50.392;7.482;2023-04-24T01:26:50;99419.88;;;13.91;68.87
4981;BME280;2507;50.392;7.482;2023-04-24T01:29:15;99431.72;;;13.95;68.00
4981;BME280;2507;50.392;7.482;2023-04-24T01:31:41;99425.44;;;13.88;67.70
4981;BME280;2507;50.392;7.482;2023-04-24T01:34:06;99422.28;;;13.84;68.07
4981;BME280;2507;50.392;7.482;2023-04-24T01:36:34;99430.63;;;13.72;68.78
4981;BME280;2507;50.392;7.482;2023-04-24T01:39:00;99424.75;;;13.78;68.41
4981;BME280;2507;50.392;7.482;2023-04-24T01:41:25;99436.09;;;13.78;68.58
4981;BME280;2507;50.392;7.482;2023-04-24T01:43:50;99436.97;;;13.87;68.34
4981;BME280;2507;50.392;7.482;2023-04-24T01:46:16;99435.69;;;13.91;67.86
4981;BME280;2507;50.392;7.482;2023-04-24T01:48:41;99445.31;;;14.08;67.51
4981;BME280;2507;50.392;7.482;2023-04-24T01:51:07;99444.78;;;14.04;66.72
4981;BME280;2507;50.392;7.482;2023-04-24T01:53:32;99441.94;;;13.90;67.39
4981;BME280;2507;50.392;7.482;2023-04-24T01:55:57;99450.09;;;13.71;68.05
4981;BME280;2507;50.392;7.482;2023-04-24T01:58:23;99445.38;;;13.57;68.60
4981;BME280;2507;50.392;7.482;2023-04-24T02:00:48;99452.50;;;13.64;67.99
4981;BME280;2507;50.392;7.482;2023-04-24T02:03:13;99454.88;;;13.50;68.30
4981;BME280;2507;50.392;7.482;2023-04-24T02:05:39;99444.59;;;13.39;69.25
4981;BME280;2507;50.392;7.482;2023-04-24T02:08:04;99450.91;;;13.46;69.05
4981;BME280;2507;50.392;7.482;2023-04-24T02:10:29;99444.09;;;13.61;68.56
4981;BME280;2507;50.392;7.482;2023-04-24T02:12:54;99460.38;;;13.56;67.64
4981;BME280;2507;50.392;7.482;2023-04-24T02:15:20;99467.66;;;13.62;67.27
4981;BME280;2507;50.392;7.482;2023-04-24T02:17:45;99463.28;;;13.45;67.76
4981;BME280;2507;50.392;7.482;2023-04-24T02:20:11;99471.38;;;13.52;67.17
4981;BME280;2507;50.392;7.482;2023-04-24T02:22:36;99484.22;;;13.55;66.83
4981;BME280;2507;50.392;7.482;2023-04-24T02:25:02;99483.63;;;13.61;66.30
4981;BME280;2507;50.392;7.482;2023-04-24T02:27:27;99481.72;;;13.45;66.60
4981;BME280;2507;50.392;7.482;2023-04-24T02:29:52;99490.06;;;13.41;66.48
4981;BME280;2507;50.392;7.482;2023-04-24T02:32:17;99492.16;;;13.29;64.31
4981;BME280;2507;50.392;7.482;2023-04-24T02:34:43;99495.63;;;13.12;62.16
4981;BME280;2507;50.392;7.482;2023-04-24T02:37:08;99499.03;;;12.95;63.32
4981;BME280;2507;50.392;7.482;2023-04-24T02:39:33;99509.69;;;12.85;61.84
4981;BME280;2507;50.392;7.482;2023-04-24T02:41:59;99513.94;;;12.86;62.23
4981;BME280;2507;50.392;7.482;2023-04-24T02:44:24;99518.84;;;12.81;60.75
4981;BME280;2507;50.392;7.482;2023-04-24T02:46:50;99512.22;;;12.77;61.15
4981;BME280;2507;50.392;7.482;2023-04-24T02:49:15;99523.81;;;12.84;60.50
4981;BME280;2507;50.392;7.482;2023-04-24T02:51:40;99519.94;;;12.61;59.69
4981;BME280;2507;50.392;7.482;2023-04-24T02:54:07;99515.03;;;12.49;59.37
4981;BME280;2507;50.392;7.482;2023-04-24T02:56:34;99523.31;;;12.54;58.91
4981;BME280;2507;50.392;7.482;2023-04-24T02:58:59;99521.91;;;12.32;59.14
4981;BME280;2507;50.392;7.482;2023-04-24T03:01:24;99530.13;;;12.19;59.58
4981;BME280;2507;50.392;7.482;2023-04-24T03:03:50;99533.16;;;12.24;59.00
4981;BME280;2507;50.392;7.482;2023-04-24T03:06:15;99539.69;;;12.11;59.68
4981;BME280;2507;50.392;7.482;2023-04-24T03:08:40;99526.75;;;12.00;59.79
4981;BME280;2507;50.392;7.482;2023-04-24T03:11:06;99536.59;;;11.98;59.83
4981;BME280;2507;50.392;7.482;2023-04-24T03:13:31;99541.19;;;11.77;60.49
4981;BME280;2507;50.392;7.482;2023-04-24T03:15:56;99543.81;;;11.77;58.91
4981;BME280;2507;50.392;7.482;2023-04-24T03:18:21;99540.78;;;11.62;58.70
4981;BME280;2507;50.392;7.482;2023-04-24T03:20:47;99546.88;;;11.44;59.51
4981;BME280;2507;50.392;7.482;2023-04-24T03:23:12;99554.91;;;11.52;59.32
4981;BME280;2507;50.392;7.482;2023-04-24T03:25:37;99558.09;;;11.46;59.20
4981;BME280;2507;50.392;7.482;2023-04-24T03:28:03;99548.56;;;11.25;59.56
4981;BME280;2507;50.392;7.482;2023-04-24T03:30:29;99557.72;;;11.21;59.90
4981;BME280;2507;50.392;7.482;2023-04-24T03:32:54;99558.53;;;11.31;60.09
4981;BME280;2507;50.392;7.482;2023-04-24T03:35:19;99557.97;;;11.28;60.47
4981;BME280;2507;50.392;7.482;2023-04-24T03:37:46;99563.38;;;11.36;60.35
4981;BME280;2507;50.392;7.482;2023-04-24T03:40:11;99566.13;;;11.44;59.97
4981;BME280;2507;50.392;7.482;2023-04-24T03:42:36;99563.22;;;11.28;60.63
4981;BME280;2507;50.392;7.482;2023-04-24T03:45:05;99548.84;;;11.13;60.50
4981;BME280;2507;50.392;7.482;2023-04-24T03:47:30;99555.06;;;11.02;61.08
4981;BME280;2507;50.392;7.482;2023-04-24T03:49:56;99551.06;;;11.17;60.76
4981;BME280;2507;50.392;7.482;2023-04-24T03:52:21;99549.13;;;11.10;60.76
4981;BME280;2507;50.392;7.482;2023-04-24T03:54:46;99562.81;;;10.94;61.51
4981;BME280;2507;50.392;7.482;2023-04-24T03:57:12;99565.28;;;10.96;61.51
4981;BME280;2507;50.392;7.482;2023-04-24T03:59:37;99571.50;;;10.95;62.26
4981;BME280;2507;50.392;7.482;2023-04-24T04:02:02;99576.59;;;10.77;62.74
4981;BME280;2507;50.392;7.482;2023-04-24T04:04:27;99578.50;;;10.75;63.19
4981;BME280;2507;50.392;7.482;2023-04-24T04:06:53;99591.22;;;10.70;63.62
4981;BME280;2507;50.392;7.482;2023-04-24T04:09:18;99595.97;;;10.46;64.27
4981;BME280;2507;50.392;7.482;2023-04-24T04:11:43;99589.72;;;10.38;64.75
4981;BME280;2507;50.392;7.482;2023-04-24T04:14:09;99584.34;;;10.39;64.74
4981;BME280;2507;50.392;7.482;2023-04-24T04:16:34;99586.53;;;10.34;64.71
4981;BME280;2507;50.392;7.482;2023-04-24T04:19:01;99587.34;;;10.35;64.75
4981;BME280;2507;50.392;7.482;2023-04-24T04:21:27;99588.88;;;10.37;64.97
4981;BME280;2507;50.392;7.482;2023-04-24T04:23:53;99596.38;;;10.42;64.44
4981;BME280;2507;50.392;7.482;2023-04-24T04:26:18;99582.00;;;10.36;64.53
4981;BME280;2507;50.392;7.482;2023-04-24T04:28:44;99591.56;;;10.47;64.11
4981;BME280;2507;50.392;7.482;2023-04-24T04:31:09;99604.25;;;10.51;64.02
4981;BME280;2507;50.392;7.482;2023-04-24T04:33:35;99610.19;;;10.53;63.75
4981;BME280;2507;50.392;7.482;2023-04-24T04:36:01;99613.16;;;10.69;63.77
4981;BME280;2507;50.392;7.482;2023-04-24T04:38:26;99616.22;;;10.74;63.64
4981;BME280;2507;50.392;7.482;2023-04-24T04:40:55;99608.53;;;10.92;63.04
4981;BME280;2507;50.392;7.482;2023-04-24T04:43:22;99604.78;;;11.04;62.40
4981;BME280;2507;50.392;7.482;2023-04-24T04:45:48;99597.94;;;11.12;62.80
4981;BME280;2507;50.392;7.482;2023-04-24T04:48:13;99603.72;;;11.45;61.78
4981;BME280;2507;50.392;7.482;2023-04-24T04:50:39;99599.88;;;11.77;60.58
4981;BME280;2507;50.392;7.482;2023-04-24T04:53:04;99604.13;;;11.88;59.98
4981;BME280;2507;50.392;7.482;2023-04-24T04:55:30;99604.28;;;11.67;60.52
4981;BME280;2507;50.392;7.482;2023-04-24T04:57:56;99605.19;;;12.04;60.56
4981;BME280;2507;50.392;7.482;2023-04-24T05:00:21;99604.34;;;12.50;58.99
4981;BME280;2507;50.392;7.482;2023-04-24T05:02:47;99604.53;;;13.20;57.37
4981;BME280;2507;50.392;7.482;2023-04-24T05:05:12;99606.13;;;13.92;54.95
4981;BME280;2507;50.392;7.482;2023-04-24T05:07:38;99613.13;;;14.60;53.41
4981;BME280;2507;50.392;7.482;2023-04-24T05:10:03;99607.69;;;15.11;51.99
4981;BME280;2507;50.392;7.482;2023-04-24T05:12:29;99607.97;;;15.74;50.66
4981;BME280;2507;50.392;7.482;2023-04-24T05:14:54;99615.41;;;16.03;48.89
4981;BME280;2507;50.392;7.482;2023-04-24T05:17:19;99620.34;;;15.66;49.10
4981;BME280;2507;50.392;7.482;2023-04-24T05:19:45;99618.28;;;15.11;49.91
4981;BME280;2507;50.392;7.482;2023-04-24T05:22:11;99633.88;;;14.21;52.05
4981;BME280;2507;50.392;7.482;2023-04-24T05:24:37;99641.00;;;14.03;53.52
4981;BME280;2507;50.392;7.482;2023-04-24T05:27:03;99653.69;;;14.00;53.69
4981;BME280;2507;50.392;7.482;2023-04-24T05:29:30;99643.97;;;13.83;54.34
4981;BME280;2507;50.392;7.482;2023-04-24T05:31:59;99653.19;;;14.04;53.94
4981;BME280;2507;50.392;7.482;2023-04-24T05:34:24;99648.78;;;13.87;53.86
4981;BME280;2507;50.392;7.482;2023-04-24T05:36:50;99656.03;;;13.68;54.86
4981;BME280;2507;50.392;7.482;2023-04-24T05:39:15;99667.78;;;13.56;54.93
4981;BME280;2507;50.392;7.482;2023-04-24T05:41:41;99655.34;;;13.66;55.23
4981;BME280;2507;50.392;7.482;2023-04-24T05:44:06;99655.28;;;13.58;55.30
4981;BME280;2507;50.392;7.482;2023-04-24T05:46:31;99654.63;;;13.56;55.39
4981;BME280;2507;50.392;7.482;2023-04-24T05:48:57;99661.88;;;13.09;56.17
4981;BME280;2507;50.392;7.482;2023-04-24T05:51:22;99664.13;;;12.94;57.08
4981;BME280;2507;50.392;7.482;2023-04-24T05:53:48;99663.03;;;12.87;57.58
4981;BME280;2507;50.392;7.482;2023-04-24T05:56:13;99671.91;;;12.59;58.63
4981;BME280;2507;50.392;7.482;2023-04-24T05:58:38;99659.41;;;12.71;58.49
4981;BME280;2507;50.392;7.482;2023-04-24T06:01:04;99676.00;;;12.98;58.36
4981;BME280;2507;50.392;7.482;2023-04-24T06:03:29;99673.81;;;13.03;58.16
4981;BME280;2507;50.392;7.482;2023-04-24T06:05:55;99671.25;;;12.84;58.06
4981;BME280;2507;50.392;7.482;2023-04-24T06:08:20;99680.56;;;12.79;58.78
4981;BME280;2507;50.392;7.482;2023-04-24T06:10:45;99669.28;;;12.86;59.26
4981;BME280;2507;50.392;7.482;2023-04-24T06:13:11;99664.94;;;12.95;58.86
4981;BME280;2507;50.392;7.482;2023-04-24T06:15:37;99661.63;;;13.20;58.17
4981;BME280;2507;50.392;7.482;2023-04-24T06:18:02;99662.53;;;13.11;58.63
4981;BME280;2507;50.392;7.482;2023-04-24T06:20:28;99665.16;;;13.56;58.00
4981;BME280;2507;50.392;7.482;2023-04-24T06:22:53;99666.63;;;14.96;55.68
4981;BME280;2507;50.392;7.482;2023-04-24T06:25:19;99653.28;;;15.63;51.93
4981;BME280;2507;50.392;7.482;2023-04-24T06:27:44;99654.84;;;15.32;53.00
4981;BME280;2507;50.392;7.482;2023-04-24T06:30:10;99648.47;;;15.01;53.80
4981;BME280;2507;50.392;7.482;2023-04-24T06:32:36;99650.78;;;14.96;53.65
4981;BME280;2507;50.392;7.482;2023-04-24T06:35:01;99687.38;;;14.83;54.03
4981;BME280;2507;50.392;7.482;2023-04-24T06:37:26;99653.81;;;14.24;54.84
4981;BME280;2507;50.392;7.482;2023-04-24T06:39:52;99656.25;;;13.92;55.49
4981;BME280;2507;50.392;7.482;2023-04-24T06:42:17;99661.22;;;13.77;55.17
4981;BME280;2507;50.392;7.482;2023-04-24T06:44:42;99654.75;;;13.37;56.83
4981;BME280;2507;50.392;7.482;2023-04-24T06:47:09;99631.69;;;13.21;57.29
4981;BME280;2507;50.392;7.482;2023-04-24T06:49:36;99642.34;;;13.47;57.14
4981;BME280;2507;50.392;7.482;2023-04-24T06:52:01;99658.06;;;13.39;56.65
4981;BME280;2507;50.392;7.482;2023-04-24T06:54:27;99652.63;;;13.40;56.67
4981;BME280;2507;50.392;7.482;2023-04-24T06:56:52;99656.47;;;13.28;57.30
4981;BME280;2507;50.392;7.482;2023-04-24T06:59:17;99650.38;;;13.27;57.32
4981;BME280;2507;50.392;7.482;2023-04-24T07:01:43;99637.28;;;13.36;57.67
4981;BME280;2507;50.392;7.482;2023-04-24T07:04:08;99650.78;;;13.32;57.20
4981;BME280;2507;50.392;7.482;2023-04-24T07:06:33;99655.34;;;13.48;56.50
4981;BME280;2507;50.392;7.482;2023-04-24T07:09:00;99647.44;;;13.30;57.04
4981;BME280;2507;50.392;7.482;2023-04-24T07:11:26;99661.91;;;13.26;57.18
4981;BME280;2507;50.392;7.482;2023-04-24T07:13:54;99643.38;;;13.36;57.12
4981;BME280;2507;50.392;7.482;2023-04-24T07:16:19;99647.50;;;13.39;57.51
4981;BME280;2507;50.392;7.482;2023-04-24T07:18:44;99650.63;;;13.52;57.22
4981;BME280;2507;50.392;7.482;2023-04-24T07:21:10;99652.03;;;13.64;57.13
4981;BME280;2507;50.392;7.482;2023-04-24T07:23:36;99651.38;;;13.62;57.02
4981;BME280;2507;50.392;7.482;2023-04-24T07:26:01;99655.03;;;13.51;57.47
4981;BME280;2507;50.392;7.482;2023-04-24T07:28:26;99661.38;;;13.41;58.12
4981;BME280;2507;50.392;7.482;2023-04-24T07:30:52;99696.69;;;13.48;57.56
4981;BME280;2507;50.392;7.482;2023-04-24T07:33:19;99677.44;;;13.65;57.44
4981;BME280;2507;50.392;7.482;2023-04-24T07:35:44;99673.38;;;13.70;57.52
4981;BME280;2507;50.392;7.482;2023-04-24T07:38:09;99678.78;;;13.51;57.56
4981;BME280;2507;50.392;7.482;2023-04-24T07:40:35;99675.16;;;13.52;57.98
4981;BME280;2507;50.392;7.482;2023-04-24T07:43:00;99678.47;;;13.72;57.80
4981;BME280;2507;50.392;7.482;2023-04-24T07:45:25;99685.84;;;13.86;57.32
4981;BME280;2507;50.392;7.482;2023-04-24T07:47:53;99681.38;;;14.04;56.72
4981;BME280;2507;50.392;7.482;2023-04-24T07:50:18;99678.34;;;14.16;56.54
4981;BME280;2507;50.392;7.482;2023-04-24T07:52:43;99690.19;;;14.30;56.08
4981;BME280;2507;50.392;7.482;2023-04-24T07:55:09;99693.06;;;14.19;56.48
4981;BME280;2507;50.392;7.482;2023-04-24T07:57:34;99692.47;;;14.07;55.96
4981;BME280;2507;50.392;7.482;2023-04-24T08:00:00;99696.78;;;13.91;56.91
4981;BME280;2507;50.392;7.482;2023-04-24T08:02:25;99704.31;;;13.86;56.67
4981;BME280;2507;50.392;7.482;2023-04-24T08:04:54;99714.09;;;13.58;57.90
4981;BME280;2507;50.392;7.482;2023-04-24T08:07:19;99705.44;;;13.66;57.94
4981;BME280;2507;50.392;7.482;2023-04-24T08:09:45;99713.38;;;13.83;57.62
4981;BME280;2507;50.392;7.482;2023-04-24T08:12:10;99717.44;;;13.95;57.54
4981;BME280;2507;50.392;7.482;2023-04-24T08:14:35;99710.78;;;13.91;56.77
4981;BME280;2507;50.392;7.482;2023-04-24T08:17:01;99715.50;;;13.80;57.82
4981;BME280;2507;50.392;7.482;2023-04-24T08:19:27;99726.25;;;13.69;58.23
4981;BME280;2507;50.392;7.482;2023-04-24T08:21:52;99729.56;;;13.71;58.85
4981;BME280;2507;50.392;7.482;2023-04-24T08:24:18;99730.53;;;13.70;58.79
4981;BME280;2507;50.392;7.482;2023-04-24T08:26:43;99731.75;;;13.75;58.30
4981;BME280;2507;50.392;7.482;2023-04-24T08:29:08;99747.19;;;13.53;59.13
4981;BME280;2507;50.392;7.482;2023-04-24T08:31:34;99741.22;;;13.51;59.42
4981;BME280;2507;50.392;7.482;2023-04-24T08:34:00;99734.28;;;13.50;59.09
4981;BME280;2507;50.392;7.482;2023-04-24T08:36:25;99738.63;;;13.41;59.80
4981;BME280;2507;50.392;7.482;2023-04-24T08:38:51;99756.53;;;13.65;59.52
4981;BME280;2507;50.392;7.482;2023-04-24T08:41:17;99750.66;;;13.71;59.35
4981;BME280;2507;50.392;7.482;2023-04-24T08:43:43;99752.53;;;13.61;59.72
4981;BME280;2507;50.392;7.482;2023-04-24T08:46:09;99761.66;;;13.66;59.87
4981;BME280;2507;50.392;7.482;2023-04-24T08:48:35;99761.94;;;13.63;60.50
4981;BME280;2507;50.392;7.482;2023-04-24T08:51:02;99760.53;;;13.69;60.15
4981;BME280;2507;50.392;7.482;2023-04-24T08:53:27;99770.59;;;13.56;60.37
4981;BME280;2507;50.392;7.482;2023-04-24T08:55:55;99768.91;;;13.55;61.50
4981;BME280;2507;50.392;7.482;2023-04-24T08:58:22;99772.66;;;13.62;61.20
4981;BME280;2507;50.392;7.482;2023-04-24T09:00:50;99776.09;;;13.62;60.93
4981;BME280;2507;50.392;7.482;2023-04-24T09:03:17;99778.72;;;13.62;60.98
4981;BME280;2507;50.392;7.482;2023-04-24T09:05:43;99781.31;;;13.72;61.63
4981;BME280;2507;50.392;7.482;2023-04-24T09:08:13;99778.84;;;13.88;60.67
4981;BME280;2507;50.392;7.482;2023-04-24T09:10:39;99788.03;;;14.19;59.40
4981;BME280;2507;50.392;7.482;2023-04-24T09:13:04;99790.41;;;14.40;59.07
4981;BME280;2507;50.392;7.482;2023-04-24T09:15:30;99788.47;;;14.67;58.25
4981;BME280;2507;50.392;7.482;2023-04-24T09:17:55;99785.00;;;14.67;57.91
4981;BME280;2507;50.392;7.482;2023-04-24T09:20:21;99803.78;;;14.64;58.69
4981;BME280;2507;50.392;7.482;2023-04-24T09:22:47;99804.72;;;14.37;59.38
4981;BME280;2507;50.392;7.482;2023-04-24T09:25:12;99814.72;;;13.98;59.59
4981;BME280;2507;50.392;7.482;2023-04-24T09:27:42;99817.16;;;13.65;59.78
4981;BME280;2507;50.392;7.482;2023-04-24T09:30:09;99821.25;;;13.50;59.92
4981;BME280;2507;50.392;7.482;2023-04-24T09:32:34;99829.25;;;13.67;60.62
4981;BME280;2507;50.392;7.482;2023-04-24T09:35:07;99835.44;;;13.49;58.07
4981;BME280;2507;50.392;7.482;2023-04-24T09:37:40;99835.84;;;13.44;58.59
4981;BME280;2507;50.392;7.482;2023-04-24T09:40:20;99834.28;;;13.51;57.82
4981;BME280;2507;50.392;7.482;2023-04-24T09:42:46;99842.81;;;13.72;57.16
4981;BME280;2507;50.392;7.482;2023-04-24T09:45:16;99847.19;;;13.81;56.52
4981;BME280;2507;50.392;7.482;2023-04-24T09:47:42;99857.75;;;13.81;56.55
4981;BME280;2507;50.392;7.482;2023-04-24T09:52:40;99849.72;;;13.73;56.49
4981;BME280;2507;50.392;7.482;2023-04-24T09:55:14;99858.84;;;13.79;55.86
4981;BME280;2507;50.392;7.482;2023-04-24T09:57:57;99858.91;;;14.14;56.48
4981;BME280;2507;50.392;7.482;2023-04-24T10:00:24;99852.94;;;14.39;54.96
4981;BME280;2507;50.392;7.482;2023-04-24T10:02:51;99881.66;;;14.77;54.67
4981;BME280;2507;50.392;7.482;2023-04-24T10:05:23;99867.44;;;15.21;53.72
4981;BME280;2507;50.392;7.482;2023-04-24T10:07:48;99859.97;;;15.17;53.11
4981;BME280;2507;50.392;7.482;2023-04-24T10:10:13;99863.75;;;15.14;53.46
4981;BME280;2507;50.392;7.482;2023-04-24T10:12:39;99864.06;;;14.68;53.86
4981;BME280;2507;50.392;7.482;2023-04-24T10:15:05;99866.88;;;14.67;53.93
4981;BME280;2507;50.392;7.482;2023-04-24T10:17:32;99891.19;;;14.53;55.17
4981;BME280;2507;50.392;7.482;2023-04-24T10:19:58;99867.84;;;14.48;54.26
4981;BME280;2507;50.392;7.482;2023-04-24T10:22:25;99876.22;;;14.44;53.81
4981;BME280;2507;50.392;7.482;2023-04-24T10:24:52;99877.28;;;14.68;53.29
4981;BME280;2507;50.392;7.482;2023-04-24T10:27:17;99889.97;;;14.65;53.13
4981;BME280;2507;50.392;7.482;2023-04-24T10:29:46;99898.50;;;14.76;52.46
4981;BME280;2507;50.392;7.482;2023-04-24T10:32:12;99900.22;;;14.68;52.92
4981;BME280;2507;50.392;7.482;2023-04-24T10:34:38;99891.22;;;14.78;52.42
4981;BME280;2507;50.392;7.482;2023-04-24T10:37:03;99883.38;;;14.51;51.62
4981;BME280;2507;50.392;7.482;2023-04-24T10:39:29;99889.53;;;14.24;53.72
4981;BME280;2507;50.392;7.482;2023-04-24T10:41:55;99894.31;;;14.39;53.28
4981;BME280;2507;50.392;7.482;2023-04-24T10:44:24;99920.06;;;14.54;52.97
4981;BME280;2507;50.392;7.482;2023-04-24T10:46:53;99906.41;;;14.59;52.56
4981;BME280;2507;50.392;7.482;2023-04-24T10:49:28;99905.59;;;14.13;52.92
4981;BME280;2507;50.392;7.482;2023-04-24T10:51:54;99910.44;;;13.91;53.50
4981;BME280;2507;50.392;7.482;2023-04-24T10:54:27;99897.13;;;14.10;53.52
4981;BME280;2507;50.392;7.482;2023-04-24T10:57:25;99904.19;;;14.37;52.64
4981;BME280;2507;50.392;7.482;2023-04-24T10:59:39;99913.84;;;14.28;52.67
4981;BME280;2507;50.392;7.482;2023-04-24T11:02:06;99916.28;;;14.12;53.07
4981;BME280;2507;50.392;7.482;2023-04-24T11:04:33;99922.25;;;14.14;53.25
4981;BME280;2507;50.392;7.482;2023-04-24T11:07:00;99920.88;;;14.10;53.86
4981;BME280;2507;50.392;7.482;2023-04-24T11:09:30;99923.56;;;14.27;53.20
4981;BME280;2507;50.392;7.482;2023-04-24T11:12:04;99933.22;;;13.82;54.21
4981;BME280;2507;50.392;7.482;2023-04-24T11:17:31;99950.63;;;13.19;56.44
4981;BME280;2507;50.392;7.482;2023-04-24T11:20:07;99969.19;;;12.89;58.76
4981;BME280;2507;50.392;7.482;2023-04-24T11:22:34;99976.38;;;12.59;61.52
4981;BME280;2507;50.392;7.482;2023-04-24T11:25:01;99990.94;;;12.63;64.74
4981;BME280;2507;50.392;7.482;2023-04-24T11:27:31;99988.69;;;12.58;67.20
4981;BME280;2507;50.392;7.482;2023-04-24T11:34:51;100002.13;;;12.46;69.39
4981;BME280;2507;50.392;7.482;2023-04-24T11:37:17;100002.25;;;12.44;70.24
4981;BME280;2507;50.392;7.482;2023-04-24T11:39:42;100006.31;;;12.58;69.95
4981;BME280;2507;50.392;7.482;2023-04-24T11:42:14;100005.19;;;12.60;69.68
4981;BME280;2507;50.392;7.482;2023-04-24T11:44:41;99998.56;;;12.56;69.47
4981;BME280;2507;50.392;7.482;2023-04-24T11:47:06;99998.84;;;12.72;68.47
4981;BME280;2507;50.392;7.482;2023-04-24T11:49:37;100012.28;;;12.79;68.50
4981;BME280;2507;50.392;7.482;2023-04-24T11:52:04;100006.50;;;12.94;69.33
4981;BME280;2507;50.392;7.482;2023-04-24T11:54:29;100002.22;;;13.12;67.83
4981;BME280;2507;50.392;7.482;2023-04-24T11:56:56;100002.50;;;13.38;66.98
4981;BME280;2507;50.392;7.482;2023-04-24T11:59:21;100006.00;;;13.75;66.30
4981;BME280;2507;50.392;7.482;2023-04-24T12:01:48;100011.09;;;14.23;62.57
4981;BME280;2507;50.392;7.482;2023-04-24T12:04:14;100008.00;;;14.55;60.64
4981;BME280;2507;50.392;7.482;2023-04-24T12:06:39;100022.47;;;14.78;58.87
4981;BME280;2507;50.392;7.482;2023-04-24T12:09:05;100007.53;;;14.86;56.30
4981;BME280;2507;50.392;7.482;2023-04-24T12:11:31;100003.75;;;14.71;55.68
4981;BME280;2507;50.392;7.482;2023-04-24T12:13:56;100012.88;;;14.59;56.97
4981;BME280;2507;50.392;7.482;2023-04-24T12:16:24;100015.22;;;14.35;56.66
4981;BME280;2507;50.392;7.482;2023-04-24T12:18:51;100017.06;;;14.25;56.46
4981;BME280;2507;50.392;7.482;2023-04-24T12:21:22;100021.16;;;14.10;56.88
4981;BME280;2507;50.392;7.482;2023-04-24T12:23:49;100031.34;;;13.95;58.74
4981;BME280;2507;50.392;7.482;2023-04-24T12:26:16;100022.66;;;13.76;56.64
4981;BME280;2507;50.392;7.482;2023-04-24T12:28:43;100037.44;;;13.21;58.93
4981;BME280;2507;50.392;7.482;2023-04-24T12:31:08;100034.09;;;13.09;61.50
4981;BME280;2507;50.392;7.482;2023-04-24T12:33:34;100018.16;;;13.30;61.77
4981;BME280;2507;50.392;7.482;2023-04-24T12:35:59;100019.03;;;13.77;61.48
4981;BME280;2507;50.392;7.482;2023-04-24T12:38:26;100021.00;;;14.11;57.81
4981;BME280;2507;50.392;7.482;2023-04-24T12:41:09;100026.47;;;14.37;57.42
4981;BME280;2507;50.392;7.482;2023-04-24T12:43:35;100013.41;;;14.63;56.78
4981;BME280;2507;50.392;7.482;2023-04-24T12:46:00;100018.19;;;14.94;56.92
4981;BME280;2507;50.392;7.482;2023-04-24T12:48:29;100008.66;;;15.19;55.68
4981;BME280;2507;50.392;7.482;2023-04-24T12:50:57;100001.84;;;15.52;53.14
4981;BME280;2507;50.392;7.482;2023-04-24T12:53:25;100000.59;;;15.64;53.33
4981;BME280;2507;50.392;7.482;2023-04-24T12:55:51;100000.88;;;15.53;53.02
4981;BME280;2507;50.392;7.482;2023-04-24T12:58:20;99998.00;;;15.28;52.22
4981;BME280;2507;50.392;7.482;2023-04-24T13:00:46;99996.81;;;15.23;52.85
4981;BME280;2507;50.392;7.482;2023-04-24T13:03:12;100006.84;;;15.02;53.71
4981;BME280;2507;50.392;7.482;2023-04-24T13:05:37;100008.75;;;14.92;54.34
4981;BME280;2507;50.392;7.482;2023-04-24T13:08:02;100011.53;;;15.08;54.33
4981;BME280;2507;50.392;7.482;2023-04-24T13:10:28;100010.56;;;15.09;55.00
4981;BME280;2507;50.392;7.482;2023-04-24T13:12:53;100010.78;;;15.15;55.55
4981;BME280;2507;50.392;7.482;2023-04-24T13:15:19;100012.28;;;15.00;50.76
4981;BME280;2507;50.392;7.482;2023-04-24T13:17:44;100016.50;;;14.76;48.93
4981;BME280;2507;50.392;7.482;2023-04-24T13:20:09;100017.31;;;14.59;48.29
4981;BME280;2507;50.392;7.482;2023-04-24T13:22:35;100022.59;;;14.59;48.67
4981;BME280;2507;50.392;7.482;2023-04-24T13:25:01;100021.09;;;14.56;47.92